Terminal Aerodrome Forecast
Issued by NWS Cleveland, OH

Home | Current Version | Previous Version | Text Only | Print | Product List | Glossary Off
Versions: 1 2 3 4 5 6 7 8 9 10 11 12 13 14

000
FTUS41 KCLE 251131
TAFERI
TAF
KERI 251131Z 2512/2612 22010KT P6SM VCSH BKN045 OVC120
     FM251400 23010KT P6SM VCTS BKN045CB OVC120
      TEMPO 2514/2516 3SM -TSRA BR OVC045CB
     FM251800 25010G18KT P6SM SCT040 BKN150
     FM252300 25008KT P6SM FEW040
     FM260800 33004KT P6SM FEW040=

USA.gov is the U.S. government's official web portal to all federal, state and local government web resources and services.